createdAt,value
2022-11-14T00:02:12.535Z,6.75
2022-11-14T00:04:59.866Z,7.65
2022-11-14T00:07:47.457Z,5.97
2022-11-14T00:10:35.929Z,8.95
2022-11-14T00:13:23.216Z,7.45
2022-11-14T00:16:10.152Z,6.50
2022-11-14T00:18:57.230Z,10.23
2022-11-14T00:21:44.099Z,8.05
2022-11-14T00:24:31.260Z,6.68
2022-11-14T00:27:20.226Z,7.50
2022-11-14T00:30:07.735Z,7.07
2022-11-14T00:32:54.838Z,7.22
2022-11-14T00:35:42.236Z,7.72
2022-11-14T00:38:29.811Z,8.73
2022-11-14T00:41:16.867Z,7.03
2022-11-14T00:44:05.459Z,7.70
2022-11-14T00:46:52.635Z,6.10
2022-11-14T00:49:40.020Z,6.25
2022-11-14T00:52:27.052Z,8.73
2022-11-14T00:55:14.219Z,6.63
2022-11-14T00:58:01.432Z,6.18
2022-11-14T01:00:50.407Z,6.82
2022-11-14T01:03:37.836Z,7.00
2022-11-14T01:06:25.082Z,7.60
2022-11-14T01:09:12.439Z,14.02
2022-11-14T01:11:59.402Z,6.43
2022-11-14T01:14:46.877Z,7.18
2022-11-14T01:17:35.396Z,5.88
2022-11-14T01:20:22.544Z,6.60
2022-11-14T01:23:09.944Z,8.48
2022-11-14T01:25:57.288Z,7.43
2022-11-14T01:28:44.648Z,8.65
2022-11-14T01:31:31.797Z,8.00
2022-11-14T01:34:20.511Z,9.70
2022-11-14T01:37:07.797Z,6.53
2022-11-14T01:39:58.067Z,7.13
2022-11-14T01:42:44.879Z,7.07
2022-11-14T01:45:49.917Z,7.55
2022-11-14T01:48:42.060Z,7.07
2022-11-14T01:51:31.768Z,8.07
2022-11-14T01:54:20.310Z,6.20
2022-11-14T01:57:08.342Z,7.25
2022-11-14T01:59:56.718Z,6.78
2022-11-14T02:02:43.577Z,7.72
2022-11-14T02:05:31.811Z,10.40
2022-11-14T02:08:20.710Z,8.70
2022-11-14T02:11:08.259Z,7.30
2022-11-14T02:13:55.458Z,9.07
2022-11-14T02:16:55.661Z,9.85
2022-11-14T02:19:50.416Z,10.95
2022-11-14T02:22:39.426Z,7.60
2022-11-14T02:25:26.430Z,9.65
2022-11-14T02:28:13.960Z,8.57
2022-11-14T02:31:01.443Z,9.35
2022-11-14T02:33:48.960Z,7.05
2022-11-14T02:36:36.327Z,8.43
2022-11-14T02:39:25.082Z,9.73
2022-11-14T02:42:12.232Z,6.97
2022-11-14T02:44:59.474Z,7.47
2022-11-14T02:47:46.389Z,8.55
2022-11-14T02:50:33.716Z,11.88
2022-11-14T02:53:20.689Z,8.75
2022-11-14T02:56:09.521Z,8.05
2022-11-14T02:58:56.563Z,7.22
2022-11-14T03:01:43.912Z,9.23
2022-11-14T03:04:31.707Z,12.48
2022-11-14T03:07:19.082Z,8.80
2022-11-14T03:10:08.069Z,7.03
2022-11-14T03:12:57.097Z,8.25
2022-11-14T03:15:44.072Z,9.93
2022-11-14T03:18:31.309Z,11.00
2022-11-14T03:21:19.837Z,10.07
2022-11-14T03:24:07.314Z,12.13
2022-11-14T03:26:54.448Z,8.48
2022-11-14T03:29:43.088Z,11.73
2022-11-14T03:32:30.220Z,7.90
2022-11-14T03:35:17.374Z,7.28
2022-11-14T03:38:04.341Z,10.00
2022-11-14T03:40:51.611Z,6.72
2022-11-14T03:43:39.787Z,6.75
2022-11-14T03:46:31.048Z,8.13
2022-11-14T03:49:18.121Z,7.50
2022-11-14T03:52:05.151Z,12.30
2022-11-14T03:54:52.315Z,8.50
2022-11-14T03:57:39.587Z,7.00
2022-11-14T04:00:27.560Z,10.73
2022-11-14T04:03:16.331Z,9.07
2022-11-14T04:06:04.446Z,7.78
2022-11-14T04:08:52.473Z,6.82
2022-11-14T04:11:39.395Z,8.77
2022-11-14T04:14:26.325Z,6.90
2022-11-14T04:17:13.384Z,8.63
2022-11-14T04:20:02.151Z,8.50
2022-11-14T04:22:49.528Z,10.63
2022-11-14T04:25:36.779Z,9.98
2022-11-14T04:28:24.213Z,8.10
2022-11-14T04:31:11.484Z,7.07
2022-11-14T04:33:58.784Z,8.80
2022-11-14T04:36:47.134Z,7.68
2022-11-14T04:39:34.084Z,8.05
2022-11-14T04:42:21.349Z,7.38
2022-11-14T04:45:09.617Z,7.63
2022-11-14T04:47:57.008Z,7.95
2022-11-14T04:50:44.108Z,7.97
2022-11-14T04:53:32.934Z,8.70
2022-11-14T04:56:23.212Z,10.40
2022-11-14T04:59:10.570Z,12.80
2022-11-14T05:01:57.687Z,7.63
2022-11-14T05:04:45.955Z,9.65
2022-11-14T05:07:34.067Z,9.27
2022-11-14T05:10:22.596Z,8.13
2022-11-14T05:13:09.717Z,8.55
2022-11-14T05:16:00.140Z,11.18
2022-11-14T05:18:47.512Z,8.80
2022-11-14T05:21:34.628Z,11.93
2022-11-14T05:24:21.951Z,10.05
2022-11-14T05:27:10.343Z,10.90
2022-11-14T05:29:57.419Z,11.95
2022-11-14T05:32:44.821Z,9.80
2022-11-14T05:35:32.075Z,7.85
2022-11-14T05:38:19.285Z,8.20
2022-11-14T05:41:07.532Z,7.63
2022-11-14T05:43:56.650Z,11.35
2022-11-14T05:46:44.303Z,10.00
2022-11-14T05:49:31.436Z,9.07
2022-11-14T05:52:18.468Z,11.82
2022-11-14T05:55:05.631Z,9.63
2022-11-14T05:57:52.791Z,8.52
2022-11-14T06:00:48.936Z,7.63
2022-11-14T06:03:40.158Z,7.82
2022-11-14T06:06:27.101Z,10.57
2022-11-14T06:09:14.230Z,8.60
2022-11-14T06:12:05.987Z,7.82
2022-11-14T06:14:53.420Z,9.57
2022-11-14T06:17:41.776Z,8.02
2022-11-14T06:20:29.063Z,12.05
2022-11-14T06:23:20.606Z,5.40
2022-11-14T06:26:21.987Z,5.40
2022-11-14T06:29:09.040Z,4.63
2022-11-14T06:31:56.380Z,4.20
2022-11-14T06:34:46.172Z,3.10
2022-11-14T06:37:33.924Z,2.70
2022-11-14T06:40:21.322Z,2.40
2022-11-14T06:43:08.463Z,3.88
2022-11-14T06:45:55.912Z,2.65
2022-11-14T06:48:43.069Z,2.40
2022-11-14T06:51:31.496Z,3.72
2022-11-14T06:54:18.719Z,2.47
2022-11-14T06:57:06.156Z,1.80
2022-11-14T06:59:53.144Z,2.38
2022-11-14T07:02:40.591Z,2.35
2022-11-14T07:05:28.065Z,2.28
2022-11-14T07:08:20.886Z,2.72
2022-11-14T07:11:09.470Z,1.95
2022-11-14T07:13:58.299Z,2.95
2022-11-14T07:16:45.815Z,4.32
2022-11-14T07:19:33.065Z,2.65
2022-11-14T07:22:20.690Z,2.70
2022-11-14T07:25:10.161Z,4.15
2022-11-14T07:27:59.039Z,3.08
2022-11-14T07:30:46.468Z,3.47
2022-11-14T07:33:33.844Z,3.67
2022-11-14T07:36:20.952Z,2.47
2022-11-14T07:39:08.615Z,2.50
2022-11-14T07:41:57.264Z,2.65
2022-11-14T07:44:44.813Z,2.90
2022-11-14T07:47:32.151Z,2.10
2022-11-14T07:50:20.679Z,1.98
2022-11-14T07:53:08.360Z,2.70
2022-11-14T07:55:55.753Z,3.55
2022-11-14T07:58:44.339Z,2.10
2022-11-14T08:01:31.565Z,3.65
2022-11-14T08:04:19.443Z,1.88
2022-11-14T08:07:06.551Z,1.40
2022-11-14T08:09:53.618Z,2.03
2022-11-14T08:12:41.124Z,1.73
2022-11-14T08:15:30.064Z,1.25
2022-11-14T08:18:17.415Z,3.00
2022-11-14T08:21:05.698Z,1.00
2022-11-14T08:23:52.932Z,1.00
2022-11-14T08:26:40.041Z,0.80
2022-11-14T08:29:26.947Z,1.00
2022-11-14T08:32:15.587Z,0.88
2022-11-14T08:35:02.705Z,0.60
2022-11-14T08:37:49.903Z,0.85
2022-11-14T08:40:36.950Z,0.52
2022-11-14T08:43:24.587Z,0.70
2022-11-14T08:46:11.957Z,1.00
2022-11-14T08:49:00.609Z,0.77
2022-11-14T08:51:47.771Z,0.63
2022-11-14T08:54:34.755Z,0.93
2022-11-14T08:57:22.299Z,0.60
2022-11-14T09:00:10.297Z,0.80
2022-11-14T09:02:57.326Z,1.75
2022-11-14T09:05:45.822Z,2.17
2022-11-14T09:08:33.494Z,0.60
2022-11-14T09:11:21.124Z,0.60
2022-11-14T09:14:08.530Z,0.75
2022-11-14T09:16:55.680Z,0.73
2022-11-14T09:19:42.551Z,0.77
2022-11-14T09:22:31.291Z,0.50
2022-11-14T09:25:18.504Z,0.50
2022-11-14T09:28:06.484Z,1.02
2022-11-14T09:30:53.305Z,0.60
2022-11-14T09:33:40.666Z,1.02
2022-11-14T09:36:27.844Z,0.57
2022-11-14T09:39:16.348Z,0.70
2022-11-14T09:42:10.780Z,0.68
2022-11-14T09:45:02.500Z,2.08
2022-11-14T09:47:51.463Z,1.05
2022-11-14T09:50:39.512Z,0.63
2022-11-14T09:53:31.296Z,0.88
2022-11-14T09:56:22.790Z,0.70
2022-11-14T09:59:11.120Z,0.80
2022-11-14T10:02:03.287Z,1.00
2022-11-14T10:04:56.723Z,0.70
2022-11-14T10:07:51.179Z,0.82
2022-11-14T10:10:48.146Z,1.10
2022-11-14T10:13:45.475Z,4.13
2022-11-14T10:16:38.719Z,1.33
2022-11-14T10:19:30.736Z,1.92
2022-11-14T10:22:22.788Z,1.13
2022-11-14T10:25:19.503Z,1.70
2022-11-14T10:28:13.313Z,1.77
2022-11-14T10:31:05.483Z,1.17
2022-11-14T10:33:58.773Z,1.30
2022-11-14T10:36:55.407Z,1.27
2022-11-14T10:39:44.986Z,1.63
2022-11-14T10:42:34.040Z,1.60
2022-11-14T10:45:25.677Z,1.55
2022-11-14T10:48:16.813Z,2.05
2022-11-14T10:51:05.460Z,2.72
2022-11-14T10:53:53.912Z,4.15
2022-11-14T10:56:48.496Z,7.82
2022-11-14T10:59:36.676Z,3.22
2022-11-14T11:02:24.120Z,2.63
2022-11-14T11:05:16.645Z,3.70
2022-11-14T11:08:41.856Z,2.08
2022-11-14T11:11:32.120Z,4.68
2022-11-14T11:14:20.799Z,3.95
2022-11-14T11:17:29.698Z,2.75
2022-11-14T11:20:26.935Z,1.80
2022-11-14T11:23:20.324Z,2.33
2022-11-14T11:26:09.650Z,2.92
2022-11-14T11:29:04.118Z,3.22
2022-11-14T11:31:53.135Z,3.55
2022-11-14T11:34:40.535Z,3.45
2022-11-14T11:37:30.213Z,4.55
2022-11-14T11:40:22.263Z,3.00
2022-11-14T11:46:21.843Z,2.30
2022-11-14T11:49:13.723Z,3.05
2022-11-14T11:52:05.234Z,4.53
2022-11-14T11:55:00.515Z,1.90
2022-11-14T11:57:49.553Z,3.15
2022-11-14T12:00:36.846Z,5.05
2022-11-14T12:03:26.005Z,2.80
2022-11-14T12:06:16.360Z,4.78
2022-11-14T12:09:12.787Z,4.18
2022-11-14T12:12:04.272Z,2.92
2022-11-14T12:14:57.531Z,3.25
2022-11-14T12:18:04.648Z,2.22
2022-11-14T12:20:59.707Z,2.72
2022-11-14T12:24:01.526Z,5.97
2022-11-14T12:26:57.096Z,7.35
2022-11-14T12:29:52.376Z,2.65
2022-11-14T12:32:42.244Z,5.68
2022-11-14T12:35:31.448Z,4.47
2022-11-14T12:38:19.623Z,2.60
2022-11-14T12:41:08.487Z,3.45
2022-11-14T12:43:55.515Z,3.05
2022-11-14T12:47:00.721Z,4.25
2022-11-14T12:50:15.199Z,3.45
2022-11-14T12:53:04.095Z,5.10
2022-11-14T12:56:12.576Z,2.40
2022-11-14T12:59:09.187Z,2.75
2022-11-14T13:02:04.270Z,5.63
2022-11-14T13:05:01.158Z,2.70
2022-11-14T13:07:53.129Z,3.10
2022-11-14T13:10:42.299Z,4.97
2022-11-14T13:13:47.369Z,4.13
2022-11-14T13:16:52.541Z,2.05
2022-11-14T13:20:04.639Z,3.85
2022-11-14T13:22:51.850Z,2.65
2022-11-14T13:25:38.809Z,3.50
2022-11-14T13:28:48.070Z,2.53
2022-11-14T13:31:45.800Z,6.35
2022-11-14T13:34:42.108Z,4.25
2022-11-14T13:37:37.002Z,3.85
2022-11-14T13:40:27.759Z,4.25
2022-11-14T13:43:20.274Z,2.97
2022-11-14T13:46:14.676Z,3.42
2022-11-14T13:49:10.004Z,3.20
2022-11-14T13:51:57.762Z,5.65
2022-11-14T13:54:48.303Z,10.40
2022-11-14T13:57:43.121Z,4.15
2022-11-14T14:00:31.929Z,5.65
2022-11-14T14:03:25.780Z,8.10
2022-11-14T14:06:18.119Z,4.13
2022-11-14T14:09:22.820Z,4.28
2022-11-14T14:12:17.787Z,4.38
2022-11-14T14:15:14.182Z,4.72
2022-11-14T14:18:06.827Z,6.88
2022-11-14T14:21:00.792Z,4.00
2022-11-14T14:23:51.492Z,3.42
2022-11-14T14:26:44.657Z,2.85
2022-11-14T14:29:35.293Z,4.35
2022-11-14T14:32:22.972Z,4.03
2022-11-14T14:35:26.563Z,3.45
2022-11-14T14:38:15.795Z,3.60
2022-11-14T14:41:03.174Z,5.10
2022-11-14T14:43:53.047Z,4.30
2022-11-14T14:46:40.096Z,4.60
2022-11-14T14:49:29.106Z,4.20
2022-11-14T14:52:23.113Z,4.95
2022-11-14T14:55:20.714Z,3.03
2022-11-14T14:58:19.695Z,6.25
2022-11-14T15:01:11.901Z,3.20
2022-11-14T15:04:00.909Z,4.72
2022-11-14T15:06:48.286Z,3.70
2022-11-14T15:09:35.644Z,4.50
2022-11-14T15:12:25.401Z,3.05
2022-11-14T15:15:14.699Z,6.25
2022-11-14T15:18:04.666Z,3.67
2022-11-14T15:21:06.847Z,3.85
2022-11-14T15:24:00.262Z,4.43
2022-11-14T15:26:49.836Z,3.17
2022-11-14T15:29:47.208Z,2.30
2022-11-14T15:32:34.818Z,3.53
2022-11-14T15:35:32.686Z,2.83
2022-11-14T15:41:31.572Z,2.92
2022-11-14T15:44:31.562Z,3.70
2022-11-14T15:47:23.960Z,5.88
2022-11-14T15:50:25.610Z,2.95
2022-11-14T15:53:19.834Z,4.47
2022-11-14T15:56:07.282Z,3.92
2022-11-14T15:58:54.793Z,4.80
2022-11-14T16:01:42.342Z,3.53
2022-11-14T16:04:32.756Z,4.40
2022-11-14T16:07:20.468Z,4.80
2022-11-14T16:10:15.346Z,3.92
2022-11-14T16:13:02.822Z,4.47
2022-11-14T16:15:49.891Z,3.50
2022-11-14T16:18:37.100Z,3.17
2022-11-14T16:21:25.615Z,4.18
2022-11-14T16:24:16.487Z,2.88
2022-11-14T16:27:04.493Z,3.90
2022-11-14T16:29:51.557Z,3.85
2022-11-14T16:32:38.513Z,4.47
2022-11-14T16:35:26.382Z,5.38
2022-11-14T16:38:15.359Z,2.53
2022-11-14T16:41:02.791Z,3.90
2022-11-14T16:43:50.107Z,2.88
2022-11-14T16:46:37.150Z,3.45
2022-11-14T16:49:24.654Z,3.50
2022-11-14T16:52:13.126Z,3.75
2022-11-14T16:55:01.681Z,6.32
2022-11-14T16:57:49.441Z,13.25
2022-11-14T17:00:36.776Z,5.50
2022-11-14T17:03:24.170Z,32.33
2022-11-14T17:06:11.737Z,11.57
2022-11-14T17:08:59.533Z,11.95
2022-11-14T17:11:48.901Z,12.20
2022-11-14T17:14:36.084Z,9.82
2022-11-14T17:17:23.456Z,14.85
2022-11-14T17:20:11.393Z,17.77
2022-11-14T17:22:58.664Z,10.77
2022-11-14T17:25:45.928Z,14.85
2022-11-14T17:28:35.014Z,16.75
2022-11-14T17:31:22.162Z,17.52
2022-11-14T17:34:11.335Z,6.10
2022-11-14T17:36:58.270Z,8.18
2022-11-14T17:39:45.524Z,4.15
2022-11-14T17:42:32.471Z,4.78
2022-11-14T17:45:21.173Z,4.80
2022-11-14T17:48:08.225Z,4.68
2022-11-14T17:50:55.730Z,4.13
2022-11-14T17:53:43.241Z,5.25
2022-11-14T17:56:33.236Z,3.75
2022-11-14T17:59:20.612Z,6.38
2022-11-14T18:02:09.163Z,4.70
2022-11-14T18:04:56.229Z,5.10
2022-11-14T18:07:43.287Z,5.22
2022-11-14T18:10:30.348Z,6.97
2022-11-14T18:13:17.472Z,4.75
2022-11-14T18:16:04.784Z,3.88
2022-11-14T18:18:53.631Z,4.75
2022-11-14T18:21:43.233Z,4.88
2022-11-14T18:24:30.660Z,5.30
2022-11-14T18:27:17.983Z,4.40
2022-11-14T18:30:20.045Z,4.68
2022-11-14T18:33:12.487Z,4.97
2022-11-14T18:36:01.227Z,5.63
2022-11-14T18:38:48.815Z,4.82
2022-11-14T18:41:35.820Z,5.70
2022-11-14T18:44:24.346Z,5.90
2022-11-14T18:47:11.476Z,5.70
2022-11-14T18:49:59.967Z,4.50
2022-11-14T18:52:48.794Z,6.40
2022-11-14T18:55:35.986Z,5.70
2022-11-14T18:58:23.439Z,14.50
2022-11-14T19:01:11.976Z,6.57
2022-11-14T19:04:00.323Z,6.68
2022-11-14T19:06:47.631Z,4.68
2022-11-14T19:09:36.177Z,3.90
2022-11-14T19:12:23.996Z,5.28
2022-11-14T19:15:12.275Z,5.53
2022-11-14T19:17:59.410Z,3.95
2022-11-14T19:20:47.037Z,4.90
2022-11-14T19:23:35.196Z,6.95
2022-11-14T19:26:23.710Z,5.57
2022-11-14T19:29:13.467Z,5.15
2022-11-14T19:32:00.954Z,5.47
2022-11-14T19:34:47.853Z,7.50
2022-11-14T19:37:35.004Z,5.53
2022-11-14T19:40:21.905Z,4.93
2022-11-14T19:43:12.780Z,5.03
2022-11-14T19:46:02.720Z,4.63
2022-11-14T19:48:50.040Z,7.07
2022-11-14T19:51:37.421Z,5.40
2022-11-14T19:54:24.665Z,5.00
2022-11-14T19:57:12.049Z,4.85
2022-11-14T20:00:00.675Z,5.88
2022-11-14T20:02:47.839Z,5.03
2022-11-14T20:05:35.035Z,6.82
2022-11-14T20:08:22.315Z,5.00
2022-11-14T20:11:09.482Z,5.90
2022-11-14T20:13:57.323Z,4.82
2022-11-14T20:16:46.810Z,6.65
2022-11-14T20:19:33.970Z,4.43
2022-11-14T20:22:21.064Z,5.35
2022-11-14T20:25:08.850Z,4.85
2022-11-14T20:27:56.548Z,5.68
2022-11-14T20:30:43.850Z,5.85
2022-11-14T20:33:32.991Z,5.05
2022-11-14T20:36:21.623Z,8.23
2022-11-14T20:39:09.039Z,5.50
2022-11-14T20:41:56.196Z,6.10
2022-11-14T20:44:43.579Z,5.00
2022-11-14T20:47:30.968Z,4.28
2022-11-14T20:50:19.542Z,5.13
2022-11-14T20:53:06.853Z,6.57
2022-11-14T20:55:54.791Z,5.57
2022-11-14T20:58:42.487Z,5.53
2022-11-14T21:01:29.532Z,5.15
2022-11-14T21:04:17.036Z,6.65
2022-11-14T21:07:05.463Z,6.22
2022-11-14T21:10:12.986Z,5.95
2022-11-14T21:13:17.732Z,6.35
2022-11-14T21:16:06.335Z,6.80
2022-11-14T21:18:54.532Z,6.70
2022-11-14T21:21:41.886Z,7.30
2022-11-14T21:24:30.468Z,6.07
2022-11-14T21:27:17.491Z,5.85
2022-11-14T21:30:04.491Z,6.57
2022-11-14T21:32:54.707Z,6.22
2022-11-14T21:35:42.077Z,6.72
2022-11-14T21:38:29.270Z,6.35
2022-11-14T21:41:18.818Z,5.35
2022-11-14T21:44:06.268Z,5.18
2022-11-14T21:46:55.183Z,5.55
2022-11-14T21:49:42.333Z,4.95
2022-11-14T21:52:29.761Z,7.07
2022-11-14T21:55:17.180Z,6.28
2022-11-14T21:58:06.148Z,4.65
2022-11-14T22:00:53.448Z,4.40
2022-11-14T22:03:58.419Z,5.38
2022-11-14T22:06:45.827Z,4.32
2022-11-14T22:09:33.652Z,6.13
2022-11-14T22:12:20.646Z,7.30
2022-11-14T22:15:10.351Z,3.97
2022-11-14T22:17:57.891Z,5.53
2022-11-14T22:20:45.260Z,5.40
2022-11-14T22:23:32.816Z,3.03
2022-11-14T22:26:20.583Z,3.38
2022-11-14T22:29:07.863Z,2.20
2022-11-14T22:31:56.908Z,2.13
2022-11-14T22:34:43.883Z,3.85
2022-11-14T22:37:30.747Z,3.20
2022-11-14T22:40:18.247Z,3.17
2022-11-14T22:43:05.450Z,3.03
2022-11-14T22:45:53.226Z,2.03
2022-11-14T22:48:42.011Z,2.42
2022-11-14T22:51:29.553Z,2.03
2022-11-14T22:54:16.430Z,2.42
2022-11-14T22:57:03.446Z,2.28
2022-11-14T22:59:50.684Z,2.78
2022-11-14T23:02:38.124Z,2.35
2022-11-14T23:05:26.760Z,2.05
2022-11-14T23:08:14.266Z,1.77
2022-11-14T23:11:04.636Z,3.15
2022-11-14T23:13:52.664Z,2.08
2022-11-14T23:16:40.020Z,1.60
2022-11-14T23:19:27.205Z,1.60
2022-11-14T23:22:15.632Z,1.48
2022-11-14T23:25:03.019Z,1.50
2022-11-14T23:27:50.042Z,1.45
2022-11-14T23:30:37.262Z,2.03
2022-11-14T23:33:24.279Z,2.03
2022-11-14T23:36:11.531Z,1.33
2022-11-14T23:39:00.309Z,2.75
2022-11-14T23:41:47.476Z,1.30
2022-11-14T23:44:34.562Z,1.00
2022-11-14T23:47:21.629Z,1.48
2022-11-14T23:50:08.882Z,0.93
2022-11-14T23:52:56.016Z,1.20
2022-11-14T23:55:44.584Z,1.08
2022-11-14T23:58:32.172Z,1.25
